Barron, Louisiana
Current Conditions -  °F | °C
As of 9:53 AM on Friday 21 Nov 2014 (Local Time) from KESF Reporting Station
Overcast Overcast  
Wind Chill: 61°   Ceiling: 8000
Heat Index: 61°   Visibility: 10mi
Dew Point: 50°   Wind: 7mph
Humidity: 67%   Direction: 140°SE
Pressure: 30.27"   Gusts: NA
Location:  31.3606°N, 92.2142°W
Report Text: KESF 211553Z AUTO 14006KT 10SM OVC080 16/10 A3027 RMK AO2 SLP251 T01610100
Loading
Personal Weather Stations






























Interactive Weather Map New forecast layout! Learn more

10-Day Weather Forecast

Advertisements
Track Severe Weather on mobile